Time;durP1;ratioP1;P1;durP2;ratioP2;P2;SDS_P1;SDS_P2;PMS_P1;PMS_P2;Temp;Humidity;BMP_temperature;BMP_pressure;BME280_temperature;BME280_humidity;BME280_pressure;Samples;Min_cycle;Max_cycle;Signal;HPM_P1;HPM_P2
2023/10/21 00:01:21;;;;;;;5.47;2.80;;;12.20;51.40;;;;;;5031949;28;46561;-83
2023/10/21 00:03:47;;;;;;;4.27;2.20;;;12.20;51.60;;;;;;5025242;28;46932;-82
2023/10/21 00:06:13;;;;;;;3.50;1.73;;;12.10;51.60;;;;;;5031718;28;46502;-82
2023/10/21 00:08:38;;;;;;;5.77;1.83;;;12.10;51.80;;;;;;5031574;28;47479;-81
2023/10/21 00:11:06;;;;;;;2.13;1.00;;;12.00;51.90;;;;;;5030711;28;46459;-81
2023/10/21 00:13:32;;;;;;;2.90;1.10;;;12.00;52.20;;;;;;5029152;28;46718;-82
2023/10/21 00:15:57;;;;;;;4.47;1.07;;;11.90;52.20;;;;;;5029808;28;46723;-82
2023/10/21 00:18:25;;;;;;;2.00;0.90;;;11.90;52.70;;;;;;5034737;28;46396;-80
2023/10/21 00:20:53;;;;;;;3.67;0.90;;;11.90;52.80;;;;;;5054092;28;46469;-82
2023/10/21 00:23:19;;;;;;;1.70;0.97;;;11.90;52.40;;;;;;5035144;28;46764;-81
2023/10/21 00:25:45;;;;;;;1.83;0.90;;;12.10;52.20;;;;;;5030128;28;46937;-82
2023/10/21 00:28:10;;;;;;;1.60;0.80;;;12.20;52.00;;;;;;5029996;28;46580;-81
2023/10/21 00:30:36;;;;;;;2.10;1.00;;;12.10;51.60;;;;;;5030202;28;47235;-83
2023/10/21 00:33:01;;;;;;;1.70;0.90;;;12.10;51.50;;;;;;5030130;28;46439;-81
2023/10/21 00:35:27;;;;;;;2.47;1.10;;;12.10;51.00;;;;;;5028121;28;46898;-82
2023/10/21 00:37:52;;;;;;;2.67;1.20;;;12.20;50.90;;;;;;5028960;28;46463;-79
2023/10/21 00:40:18;;;;;;;1.80;0.90;;;12.20;50.80;;;;;;5028930;28;46419;-81
2023/10/21 00:42:44;;;;;;;2.90;1.10;;;12.20;50.80;;;;;;5029651;28;47167;-80
2023/10/21 00:45:09;;;;;;;1.77;0.90;;;12.10;50.70;;;;;;5030538;28;46711;-83
2023/10/21 00:47:35;;;;;;;1.60;0.80;;;12.10;50.80;;;;;;5033499;28;46394;-84
2023/10/21 00:50:03;;;;;;;2.00;1.00;;;12.10;52.20;;;;;;5051956;28;46407;-83
2023/10/21 00:52:29;;;;;;;1.87;0.80;;;12.00;50.90;;;;;;5027916;28;46543;-81
2023/10/21 00:54:59;;;;;;;1.90;0.90;;;12.00;51.10;;;;;;5029447;28;46504;-80
2023/10/21 00:57:26;;;;;;;2.30;1.00;;;11.90;51.20;;;;;;5025788;28;46678;-82
2023/10/21 00:59:52;;;;;;;2.00;0.93;;;11.90;51.40;;;;;;5028490;28;46943;-80
2023/10/21 01:02:17;;;;;;;2.90;1.00;;;11.90;51.60;;;;;;5030741;28;46701;-81
2023/10/21 01:04:43;;;;;;;4.07;1.00;;;11.90;51.60;;;;;;5031681;28;46682;-81
2023/10/21 01:07:16;;;;;;;1.60;0.77;;;11.90;51.50;;;;;;5029065;28;46459;-81
2023/10/21 01:09:42;;;;;;;2.27;0.90;;;11.80;51.40;;;;;;5028335;28;46794;-80
2023/10/21 01:12:08;;;;;;;4.27;1.00;;;11.80;51.60;;;;;;5028788;28;46627;-79
2023/10/21 01:14:33;;;;;;;1.63;0.77;;;11.80;51.70;;;;;;5028068;28;46500;-80
2023/10/21 01:16:59;;;;;;;2.33;1.00;;;11.70;51.90;;;;;;5027851;28;47187;-81
2023/10/21 01:19:25;;;;;;;1.93;1.00;;;11.60;52.20;;;;;;5028237;28;46929;-81
2023/10/21 01:21:51;;;;;;;3.40;1.00;;;11.50;52.50;;;;;;5030308;28;46522;-81
2023/10/21 01:24:17;;;;;;;1.80;0.80;;;11.50;52.90;;;;;;5030299;28;46813;-81
2023/10/21 01:26:42;;;;;;;3.30;0.90;;;11.60;53.10;;;;;;5045169;28;48455;-82
2023/10/21 01:29:09;;;;;;;2.10;0.90;;;11.50;52.90;;;;;;5033505;28;45827;-83
2023/10/21 01:31:35;;;;;;;2.63;0.80;;;11.50;52.50;;;;;;5031849;28;46600;-81
2023/10/21 01:34:01;;;;;;;2.77;0.90;;;11.60;52.10;;;;;;5028277;28;46483;-80
2023/10/21 01:36:27;;;;;;;2.07;0.80;;;11.70;51.60;;;;;;5030974;28;47292;-81
2023/10/21 01:38:52;;;;;;;1.73;0.83;;;11.80;51.20;;;;;;5033835;28;46978;-81
2023/10/21 01:41:18;;;;;;;2.03;0.90;;;11.80;51.10;;;;;;5027102;28;46469;-80
2023/10/21 01:43:44;;;;;;;2.93;1.00;;;11.90;52.00;;;;;;5030372;28;46419;-80
2023/10/21 01:46:10;;;;;;;3.03;1.10;;;12.00;50.50;;;;;;5029772;28;46662;-81
2023/10/21 01:48:36;;;;;;;2.10;0.90;;;11.90;50.30;;;;;;5031541;28;46448;-82
2023/10/21 01:51:05;;;;;;;1.90;1.00;;;12.00;50.50;;;;;;5028204;28;46462;-80
2023/10/21 01:53:34;;;;;;;2.00;0.80;;;11.90;50.40;;;;;;5026227;28;46429;-81
2023/10/21 01:56:03;;;;;;;2.00;0.73;;;11.90;50.50;;;;;;5028963;28;47545;-81
2023/10/21 01:58:30;;;;;;;5.00;0.90;;;11.90;50.60;;;;;;5041955;28;46463;-82
2023/10/21 02:00:55;;;;;;;1.83;0.90;;;11.90;50.50;;;;;;5027929;28;46455;-82
2023/10/21 02:03:21;;;;;;;9.70;1.83;;;11.90;50.70;;;;;;5028889;28;46641;-81
2023/10/21 02:05:47;;;;;;;2.40;1.20;;;11.90;50.70;;;;;;5027707;28;46375;-79
2023/10/21 02:08:12;;;;;;;2.80;1.53;;;12.00;50.50;;;;;;5029417;28;46477;-80
2023/10/21 02:10:41;;;;;;;1.90;1.07;;;12.00;50.50;;;;;;5028953;28;46644;-82
2023/10/21 02:13:06;;;;;;;4.23;1.07;;;12.00;50.40;;;;;;5038190;28;46694;-81
2023/10/21 02:15:36;;;;;;;4.00;1.10;;;12.00;50.30;;;;;;5035739;28;46625;-82
2023/10/21 02:18:01;;;;;;;1.97;0.80;;;12.10;50.20;;;;;;5034645;28;47013;-82
2023/10/21 02:20:27;;;;;;;1.90;1.00;;;12.10;50.20;;;;;;5036507;28;46483;-82
2023/10/21 02:22:52;;;;;;;2.03;1.10;;;12.00;50.10;;;;;;5036891;28;46488;-83
2023/10/21 02:25:19;;;;;;;3.33;1.10;;;12.10;50.20;;;;;;5029346;28;47939;-83
2023/10/21 02:27:45;;;;;;;1.90;1.07;;;12.10;50.20;;;;;;5036050;28;46919;-82
2023/10/21 02:30:15;;;;;;;1.67;0.80;;;12.10;50.00;;;;;;5036772;28;46530;-82
2023/10/21 02:32:48;;;;;;;2.60;1.20;;;12.20;50.00;;;;;;5036067;28;46399;-83
2023/10/21 02:35:14;;;;;;;2.10;1.00;;;12.10;50.10;;;;;;5033749;28;46527;-83
2023/10/21 02:37:41;;;;;;;2.77;1.10;;;12.10;50.30;;;;;;5035467;28;47336;-82
2023/10/21 02:40:07;;;;;;;2.27;0.80;;;12.10;50.50;;;;;;5041369;28;46479;-83
2023/10/21 02:42:33;;;;;;;5.00;1.23;;;12.10;50.50;;;;;;5036548;28;46500;-81
2023/10/21 02:44:59;;;;;;;3.00;1.00;;;12.10;50.60;;;;;;5031012;28;46473;-81
2023/10/21 02:47:25;;;;;;;4.90;1.17;;;12.20;50.90;;;;;;5029232;28;46808;-84
2023/10/21 02:49:51;;;;;;;3.00;1.00;;;12.20;50.60;;;;;;5031730;28;46520;-82
2023/10/21 02:52:17;;;;;;;2.40;1.10;;;12.20;50.60;;;;;;5038185;28;46474;-80
2023/10/21 02:54:42;;;;;;;2.10;1.10;;;12.40;50.70;;;;;;5031029;28;49043;-82
2023/10/21 02:57:08;;;;;;;2.43;1.03;;;12.30;50.50;;;;;;5030762;28;46306;-81
2023/10/21 02:59:36;;;;;;;7.63;0.93;;;12.30;50.70;;;;;;5033059;28;46633;-82
2023/10/21 03:02:02;;;;;;;2.20;1.00;;;12.30;51.00;;;;;;5033927;28;46748;-82
2023/10/21 03:04:28;;;;;;;3.13;1.10;;;12.10;51.40;;;;;;5031202;28;46271;-81
2023/10/21 03:06:53;;;;;;;10.90;1.33;;;12.00;51.70;;;;;;5030731;28;46483;-81
2023/10/21 03:09:19;;;;;;;1.90;0.83;;;12.00;52.00;;;;;;5028637;28;46935;-80
2023/10/21 03:11:45;;;;;;;2.33;1.20;;;11.80;52.60;;;;;;5032093;28;46895;-81
2023/10/21 03:14:10;;;;;;;3.63;2.03;;;11.70;53.20;;;;;;5031439;28;48575;-81
2023/10/21 03:16:37;;;;;;;4.10;1.63;;;11.70;53.20;;;;;;5029522;28;46929;-83
2023/10/21 03:19:04;;;;;;;2.13;1.07;;;11.60;53.10;;;;;;5030664;28;46769;-80
2023/10/21 03:21:30;;;;;;;3.43;1.20;;;11.50;53.00;;;;;;5032891;28;46415;-81
2023/10/21 03:23:56;;;;;;;2.70;1.27;;;11.40;52.90;;;;;;5028715;28;49520;-82
2023/10/21 03:26:22;;;;;;;3.07;1.73;;;11.40;52.90;;;;;;5029956;28;45841;-80
2023/10/21 03:28:47;;;;;;;3.33;1.43;;;11.30;53.00;;;;;;5030783;28;46700;-83
2023/10/21 03:31:13;;;;;;;1.90;1.13;;;11.30;53.00;;;;;;5044030;28;46686;-80
2023/10/21 03:33:38;;;;;;;1.83;0.90;;;11.30;52.80;;;;;;5027711;28;48127;-82
2023/10/21 03:36:05;;;;;;;2.70;1.50;;;11.30;52.80;;;;;;5033325;28;46598;-80
2023/10/21 03:38:31;;;;;;;5.80;3.20;;;11.30;52.80;;;;;;5033754;28;46368;-81
2023/10/21 03:41:04;;;;;;;3.47;1.70;;;11.30;52.80;;;;;;5032944;28;45970;-80
2023/10/21 03:43:30;;;;;;;1.80;1.00;;;11.40;52.90;;;;;;5033094;28;48108;-78
2023/10/21 03:45:56;;;;;;;2.83;1.10;;;11.40;52.90;;;;;;5032242;28;46587;-82
2023/10/21 03:48:23;;;;;;;3.03;1.60;;;11.40;52.90;;;;;;5032831;28;46971;-81
2023/10/21 03:50:49;;;;;;;1.87;1.10;;;11.40;52.90;;;;;;5033012;28;46662;-80
2023/10/21 03:53:15;;;;;;;2.17;1.03;;;11.40;52.90;;;;;;5030547;28;46555;-83
2023/10/21 03:55:42;;;;;;;1.73;0.80;;;11.40;52.90;;;;;;5029846;28;45829;-81
2023/10/21 03:58:07;;;;;;;1.87;1.00;;;11.40;52.90;;;;;;5034414;28;46437;-80
2023/10/21 04:00:33;;;;;;;2.20;0.90;;;11.40;52.90;;;;;;5034997;28;46483;-82
2023/10/21 04:02:58;;;;;;;2.47;1.10;;;11.40;52.90;;;;;;5031827;28;46488;-80
2023/10/21 04:05:24;;;;;;;2.60;1.20;;;11.50;53.00;;;;;;5029901;28;46475;-82
2023/10/21 04:07:50;;;;;;;9.93;1.10;;;11.40;52.90;;;;;;5032799;28;46369;-82
2023/10/21 04:10:15;;;;;;;4.77;1.40;;;11.40;53.00;;;;;;5036943;28;45927;-83
2023/10/21 04:12:42;;;;;;;2.20;1.10;;;11.30;52.80;;;;;;5030743;28;47933;-82
2023/10/21 04:15:08;;;;;;;2.30;1.17;;;11.30;52.80;;;;;;5033478;28;46396;-84
2023/10/21 04:17:34;;;;;;;1.87;0.90;;;11.30;52.80;;;;;;5034539;28;46314;-82
2023/10/21 04:20:00;;;;;;;3.23;1.30;;;11.30;52.90;;;;;;5034618;28;46594;-82
2023/10/21 04:22:25;;;;;;;2.40;1.00;;;11.20;52.70;;;;;;5034983;28;46356;-85
2023/10/21 04:24:51;;;;;;;2.97;0.97;;;11.20;52.70;;;;;;5036653;28;46439;-83
2023/10/21 04:27:16;;;;;;;4.80;1.00;;;11.20;52.70;;;;;;5034356;28;46376;-84
2023/10/21 04:29:42;;;;;;;2.10;0.97;;;11.20;52.70;;;;;;5034061;28;46503;-82
2023/10/21 04:32:07;;;;;;;3.20;1.13;;;11.20;52.70;;;;;;5030230;28;46393;-81
2023/10/21 04:34:33;;;;;;;1.70;0.90;;;11.30;52.80;;;;;;5032232;28;46893;-81
2023/10/21 04:36:59;;;;;;;2.83;1.00;;;11.40;52.90;;;;;;5031006;28;47009;-82
2023/10/21 04:39:24;;;;;;;2.20;1.00;;;11.50;52.60;;;;;;5032024;28;46727;-82
2023/10/21 04:41:50;;;;;;;2.07;1.00;;;11.50;52.60;;;;;;5031152;28;47352;-82
2023/10/21 04:44:16;;;;;;;2.33;0.97;;;11.60;52.50;;;;;;5028255;28;46379;-81
2023/10/21 04:46:42;;;;;;;1.57;0.77;;;11.50;52.20;;;;;;5029536;28;46860;-82
2023/10/21 04:49:07;;;;;;;3.40;1.30;;;11.50;52.50;;;;;;5032930;28;46540;-80
2023/10/21 04:51:33;;;;;;;3.10;1.10;;;11.50;52.30;;;;;;5029776;28;47551;-81
2023/10/21 04:53:59;;;;;;;2.20;0.90;;;11.50;52.10;;;;;;5029507;28;45794;-81
2023/10/21 04:56:25;;;;;;;1.90;0.90;;;11.60;52.10;;;;;;5030400;28;46689;-82
2023/10/21 04:58:51;;;;;;;2.00;0.93;;;11.60;51.90;;;;;;5030793;28;46952;-80
2023/10/21 05:01:16;;;;;;;3.83;1.10;;;11.60;51.80;;;;;;5031262;28;47014;-83
2023/10/21 05:03:44;;;;;;;1.80;1.00;;;11.60;51.70;;;;;;5033336;28;46540;-81
2023/10/21 05:06:10;;;;;;;3.23;1.57;;;11.60;51.60;;;;;;5038467;28;46957;-80
2023/10/21 05:08:36;;;;;;;2.90;1.00;;;11.60;51.70;;;;;;5032728;28;46604;-81
2023/10/21 05:11:01;;;;;;;2.57;1.10;;;11.50;51.70;;;;;;5031529;28;47703;-81
2023/10/21 05:13:27;;;;;;;1.70;0.80;;;11.50;51.70;;;;;;5031077;28;47318;-83
2023/10/21 05:15:53;;;;;;;2.17;1.00;;;11.40;52.10;;;;;;5030272;28;46498;-82
2023/10/21 05:18:19;;;;;;;8.63;1.20;;;11.30;53.30;;;;;;5033200;28;46343;-82
2023/10/21 05:20:45;;;;;;;2.43;1.50;;;11.10;52.70;;;;;;5032381;28;47259;-84
2023/10/21 05:23:11;;;;;;;2.30;1.13;;;11.00;52.60;;;;;;5032322;28;46975;-84
2023/10/21 05:25:37;;;;;;;2.50;1.10;;;11.00;52.60;;;;;;5029743;28;46957;-82
2023/10/21 05:28:03;;;;;;;2.10;0.90;;;11.00;52.60;;;;;;5032964;28;46553;-82
2023/10/21 05:30:28;;;;;;;2.70;1.20;;;11.00;52.60;;;;;;5030054;28;46848;-84
2023/10/21 05:32:54;;;;;;;1.60;0.90;;;11.10;52.70;;;;;;5030790;28;46715;-83
2023/10/21 05:35:19;;;;;;;4.57;2.37;;;11.20;52.70;;;;;;5026527;28;46508;-83
2023/10/21 05:37:45;;;;;;;4.80;2.90;;;11.30;52.30;;;;;;5032668;28;46645;-81
2023/10/21 05:40:11;;;;;;;4.30;2.87;;;11.50;51.70;;;;;;5031488;28;46479;-82
2023/10/21 05:42:37;;;;;;;3.97;1.87;;;11.60;51.10;;;;;;5030593;28;46531;-81
2023/10/21 05:45:03;;;;;;;4.63;1.43;;;11.80;50.70;;;;;;5027988;28;46910;-83
2023/10/21 05:47:28;;;;;;;6.53;3.03;;;11.80;51.70;;;;;;5031159;28;46455;-83
2023/10/21 05:49:54;;;;;;;6.20;3.43;;;11.90;50.40;;;;;;5047472;28;47784;-83
2023/10/21 05:52:19;;;;;;;4.13;2.53;;;12.00;50.20;;;;;;5032016;28;46529;-81
2023/10/21 05:54:45;;;;;;;2.80;1.60;;;12.20;50.00;;;;;;5029726;28;46507;-82
2023/10/21 05:57:10;;;;;;;2.30;1.23;;;12.30;49.90;;;;;;5030922;28;45952;-82
2023/10/21 05:59:37;;;;;;;5.40;1.40;;;12.40;49.60;;;;;;5031933;28;46830;-82
2023/10/21 06:02:03;;;;;;;3.20;1.27;;;12.50;49.50;;;;;;5030331;28;46786;-83
2023/10/21 06:04:28;;;;;;;3.93;1.10;;;12.50;49.40;;;;;;5035562;28;46835;-82
2023/10/21 06:06:54;;;;;;;2.10;0.97;;;12.60;49.50;;;;;;5038402;28;45862;-84
2023/10/21 06:09:23;;;;;;;2.00;1.00;;;12.70;49.50;;;;;;5033226;28;48497;-84
2023/10/21 06:11:52;;;;;;;2.43;0.87;;;12.80;49.80;;;;;;5039918;28;46644;-81
2023/10/21 06:14:18;;;;;;;1.90;0.90;;;12.80;50.00;;;;;;5040405;28;46800;-83
2023/10/21 06:16:45;;;;;;;1.93;0.80;;;12.80;50.20;;;;;;5040803;28;46412;-80
2023/10/21 06:19:10;;;;;;;2.53;0.90;;;12.90;50.50;;;;;;5036455;28;48522;-83
2023/10/21 06:21:37;;;;;;;1.67;0.77;;;13.00;50.40;;;;;;5055266;28;46264;-82
2023/10/21 06:24:03;;;;;;;9.30;7.23;;;13.00;50.30;;;;;;5036798;28;46634;-81
2023/10/21 06:26:31;;;;;;;3.23;1.33;;;13.00;50.50;;;;;;5039413;28;46513;-82
2023/10/21 06:28:57;;;;;;;3.57;1.10;;;13.10;50.50;;;;;;5052418;28;48475;-82
2023/10/21 06:31:23;;;;;;;2.37;1.10;;;13.20;50.30;;;;;;5039520;28;46553;-81
2023/10/21 06:33:49;;;;;;;2.53;1.03;;;13.50;50.40;;;;;;5038991;28;46965;-81
2023/10/21 06:36:15;;;;;;;2.10;1.17;;;13.50;50.10;;;;;;5036324;28;45920;-82
2023/10/21 06:38:41;;;;;;;3.93;1.30;;;13.60;49.90;;;;;;5037865;28;46470;-82
2023/10/21 06:41:06;;;;;;;2.03;0.90;;;13.80;49.90;;;;;;5035363;28;46720;-82
2023/10/21 06:43:32;;;;;;;4.83;1.80;;;13.90;49.90;;;;;;5037210;28;46875;-81
2023/10/21 06:45:57;;;;;;;4.40;1.10;;;13.90;49.70;;;;;;5039495;28;46461;-83
2023/10/21 06:48:23;;;;;;;2.40;0.87;;;13.90;49.40;;;;;;5033702;28;47060;-81
2023/10/21 06:50:49;;;;;;;2.30;0.80;;;14.00;49.30;;;;;;5038302;28;46448;-79
2023/10/21 06:53:14;;;;;;;2.17;1.17;;;14.10;49.20;;;;;;5040300;28;46752;-79
2023/10/21 06:55:44;;;;;;;6.60;1.07;;;14.10;49.10;;;;;;5046136;28;46439;-81
2023/10/21 06:58:11;;;;;;;2.10;1.20;;;14.20;49.20;;;;;;5040380;28;46538;-83
2023/10/21 07:00:37;;;;;;;3.60;1.90;;;14.30;49.10;;;;;;5036943;28;46450;-82
2023/10/21 07:03:03;;;;;;;3.23;1.10;;;14.40;49.10;;;;;;5041358;28;46468;-82
2023/10/21 07:05:29;;;;;;;6.97;1.57;;;14.30;48.90;;;;;;5041005;28;45997;-83
2023/10/21 07:07:54;;;;;;;1.67;0.80;;;14.30;48.90;;;;;;5034877;28;46411;-80
2023/10/21 07:10:20;;;;;;;6.30;1.20;;;14.50;49.10;;;;;;5040471;28;46569;-82
2023/10/21 07:12:46;;;;;;;1.70;0.90;;;14.60;49.00;;;;;;5036937;28;46843;-79
2023/10/21 07:15:11;;;;;;;4.23;2.50;;;14.50;48.80;;;;;;5038094;28;46996;-82
2023/10/21 07:17:37;;;;;;;3.37;1.50;;;14.60;48.60;;;;;;5033546;28;48266;-83
2023/10/21 07:20:05;;;;;;;2.53;1.60;;;14.70;48.10;;;;;;5039426;28;46533;-81
2023/10/21 07:22:31;;;;;;;7.60;2.23;;;14.90;47.80;;;;;;5033283;28;46639;-82
2023/10/21 07:24:57;;;;;;;7.00;3.63;;;15.10;47.30;;;;;;5035010;28;46397;-80
2023/10/21 07:27:24;;;;;;;6.30;3.90;;;15.20;46.80;;;;;;5038936;28;48318;-81
2023/10/21 07:29:49;;;;;;;3.10;1.90;;;15.50;46.50;;;;;;5033088;28;46221;-80
2023/10/21 07:32:15;;;;;;;5.80;2.63;;;15.60;45.90;;;;;;5032446;28;45777;-82
2023/10/21 07:34:41;;;;;;;4.47;2.00;;;15.90;45.50;;;;;;5032358;28;46546;-80
2023/10/21 07:37:06;;;;;;;2.93;1.40;;;16.00;44.90;;;;;;5029888;28;49208;-81
2023/10/21 07:39:32;;;;;;;4.23;1.37;;;16.10;44.10;;;;;;5031934;28;46710;-81
2023/10/21 07:41:58;;;;;;;4.17;3.20;;;16.20;44.10;;;;;;5032790;28;46758;-83
2023/10/21 07:44:23;;;;;;;2.10;0.83;;;16.40;44.30;;;;;;5031348;28;46401;-81
2023/10/21 07:46:50;;;;;;;2.23;0.80;;;16.40;44.10;;;;;;5034221;28;46549;-82
2023/10/21 07:49:16;;;;;;;2.37;1.20;;;16.30;43.70;;;;;;5033707;28;46701;-80
2023/10/21 07:51:42;;;;;;;1.90;0.80;;;16.30;43.80;;;;;;5010127;28;46558;-80
2023/10/21 07:54:07;;;;;;;2.37;0.90;;;16.40;44.20;;;;;;5027024;28;46977;-85
2023/10/21 07:56:33;;;;;;;2.03;0.90;;;16.40;44.30;;;;;;5030222;28;47491;-81
2023/10/21 07:58:58;;;;;;;2.20;0.80;;;16.40;43.90;;;;;;5029887;28;46401;-83
2023/10/21 08:01:24;;;;;;;2.17;1.00;;;16.70;43.50;;;;;;5028476;28;46595;-82
2023/10/21 08:03:51;;;;;;;2.70;1.20;;;16.80;43.00;;;;;;5031021;28;46885;-82
2023/10/21 08:06:17;;;;;;;2.00;0.80;;;17.00;42.80;;;;;;5029676;28;46541;-83
2023/10/21 08:08:42;;;;;;;2.10;1.00;;;16.90;42.20;;;;;;5028401;28;46821;-83
2023/10/21 08:11:08;;;;;;;2.10;1.03;;;16.80;42.10;;;;;;5031985;28;46752;-83
2023/10/21 08:13:34;;;;;;;1.90;0.80;;;16.80;42.30;;;;;;5036996;28;46620;-82
2023/10/21 08:16:00;;;;;;;2.93;0.80;;;16.70;42.40;;;;;;5035264;28;47594;-83
2023/10/21 08:18:25;;;;;;;2.00;0.80;;;16.60;42.40;;;;;;5030829;28;46513;-82
2023/10/21 08:20:51;;;;;;;1.73;0.80;;;16.50;42.60;;;;;;5049380;28;46486;-82
2023/10/21 08:23:17;;;;;;;3.80;0.90;;;16.50;42.70;;;;;;5035561;28;46665;-83
2023/10/21 08:25:42;;;;;;;1.87;0.90;;;16.60;42.20;;;;;;5032562;28;46691;-83
2023/10/21 08:28:11;;;;;;;1.70;0.70;;;16.80;41.70;;;;;;5035335;28;46333;-83
2023/10/21 08:30:37;;;;;;;2.00;0.90;;;16.80;40.90;;;;;;5034516;28;46471;-85
2023/10/21 08:33:06;;;;;;;1.70;0.80;;;16.80;40.40;;;;;;5034776;28;46257;-86
2023/10/21 08:35:32;;;;;;;2.37;0.80;;;16.90;41.50;;;;;;5031607;28;48991;-83
2023/10/21 08:37:58;;;;;;;1.70;0.80;;;17.20;40.00;;;;;;5037912;28;46450;-87
2023/10/21 08:40:24;;;;;;;2.53;0.90;;;17.50;39.50;;;;;;5030567;28;45926;-82
2023/10/21 08:42:51;;;;;;;1.80;0.80;;;17.40;38.90;;;;;;5033908;28;47172;-84
2023/10/21 08:45:18;;;;;;;4.27;0.93;;;17.50;38.00;;;;;;5029492;28;46487;-84
2023/10/21 08:47:45;;;;;;;6.90;0.90;;;17.40;38.00;;;;;;5036786;28;46239;-83
2023/10/21 08:50:12;;;;;;;2.83;0.80;;;17.10;37.60;;;;;;5032009;28;46499;-82
2023/10/21 08:52:40;;;;;;;1.80;0.70;;;17.10;37.70;;;;;;5032564;28;46465;-84
2023/10/21 08:55:06;;;;;;;1.60;0.70;;;17.40;37.30;;;;;;5030555;28;47171;-82
2023/10/21 08:57:33;;;;;;;1.80;0.80;;;17.60;36.60;;;;;;5031422;28;47813;-81
2023/10/21 08:59:59;;;;;;;2.83;0.80;;;17.80;35.80;;;;;;5030559;28;46519;-81
2023/10/21 09:02:25;;;;;;;1.70;0.70;;;17.70;35.40;;;;;;5035670;28;46373;-80
2023/10/21 09:04:51;;;;;;;2.00;0.83;;;17.80;35.30;;;;;;5032544;28;46552;-81
2023/10/21 09:07:17;;;;;;;2.33;0.70;;;17.90;35.10;;;;;;5036027;28;46702;-79
2023/10/21 09:09:42;;;;;;;1.80;0.70;;;18.10;34.60;;;;;;5037853;28;46730;-85
2023/10/21 09:12:13;;;;;;;2.00;0.73;;;18.10;34.30;;;;;;5032518;28;46796;-82
2023/10/21 09:15:00;;;;;;;2.10;0.80;;;18.10;33.80;;;;;;5031733;28;46833;-82
2023/10/21 09:17:36;;;;;;;2.00;0.80;;;18.20;33.20;;;;;;5033578;28;45896;-80
2023/10/21 09:20:13;;;;;;;3.43;0.90;;;18.20;32.40;;;;;;5036644;28;46530;-84
2023/10/21 09:22:40;;;;;;;2.87;0.77;;;18.00;32.20;;;;;;5043935;28;46465;-85
2023/10/21 09:25:20;;;;;;;1.90;0.80;;;17.70;31.90;;;;;;5034749;28;47369;-79
2023/10/21 09:27:53;;;;;;;2.20;0.87;;;17.90;32.10;;;;;;5036424;28;46986;-81
2023/10/21 09:30:21;;;;;;;7.80;0.90;;;17.90;32.20;;;;;;5035544;28;46630;-83
2023/10/21 09:32:47;;;;;;;1.80;0.77;;;18.20;32.40;;;;;;5038520;28;46493;-81
2023/10/21 09:35:25;;;;;;;2.20;0.90;;;18.30;31.70;;;;;;5032580;28;48337;-85
2023/10/21 09:37:51;;;;;;;3.90;1.10;;;18.60;30.70;;;;;;5034710;28;47083;-85
2023/10/21 09:40:21;;;;;;;1.87;0.80;;;18.50;29.60;;;;;;5025166;28;46411;-84
2023/10/21 09:42:49;;;;;;;1.80;0.73;;;18.50;29.20;;;;;;5032237;28;47051;-82
2023/10/21 09:45:16;;;;;;;1.90;0.80;;;18.50;29.50;;;;;;5027721;28;46406;-83
2023/10/21 09:47:42;;;;;;;2.37;0.90;;;18.60;29.40;;;;;;5030399;28;46460;-82
2023/10/21 09:50:17;;;;;;;2.83;0.83;;;18.70;29.60;;;;;;5028004;28;46539;-83
2023/10/21 09:52:44;;;;;;;3.50;1.00;;;18.70;27.90;;;;;;5030354;28;46694;-83
2023/10/21 09:55:12;;;;;;;3.00;0.97;;;18.70;27.50;;;;;;5027834;28;46539;-83
2023/10/21 09:57:38;;;;;;;2.67;0.80;;;18.60;28.10;;;;;;5033207;28;46445;-85
2023/10/21 10:00:08;;;;;;;1.83;0.70;;;18.50;27.70;;;;;;5026760;28;46478;-84
2023/10/21 10:02:38;;;;;;;2.20;0.90;;;18.20;26.60;;;;;;5031404;28;46508;-84
2023/10/21 10:05:08;;;;;;;3.50;0.90;;;17.90;26.50;;;;;;5037186;28;47719;-86
2023/10/21 10:07:36;;;;;;;3.27;0.90;;;17.70;27.20;;;;;;5038025;28;46549;-84
2023/10/21 10:10:05;;;;;;;8.90;0.80;;;17.90;27.30;;;;;;5037807;28;46522;-82
2023/10/21 10:12:38;;;;;;;1.80;0.70;;;17.70;27.40;;;;;;5035702;28;46598;-84
2023/10/21 10:15:29;;;;;;;2.10;0.70;;;17.70;27.40;;;;;;5037659;28;47882;-84
2023/10/21 10:17:55;;;;;;;1.90;0.70;;;17.80;27.40;;;;;;5036329;28;46454;-83
2023/10/21 10:20:25;;;;;;;2.23;0.80;;;17.80;27.00;;;;;;5036427;28;46558;-84
2023/10/21 10:23:12;;;;;;;3.53;0.90;;;18.00;26.80;;;;;;5043884;28;46943;-84
2023/10/21 10:25:39;;;;;;;1.90;0.70;;;17.80;26.50;;;;;;5040507;28;49544;-84
2023/10/21 10:28:10;;;;;;;1.90;0.80;;;17.80;27.00;;;;;;5031224;28;46425;-83
2023/10/21 10:30:38;;;;;;;3.50;0.77;;;18.10;27.10;;;;;;5034065;28;46235;-85
2023/10/21 10:33:12;;;;;;;2.70;0.80;;;18.20;26.50;;;;;;5039053;28;46446;-84
2023/10/21 10:35:52;;;;;;;2.10;0.77;;;18.40;26.00;;;;;;5035608;28;47821;-85
2023/10/21 10:38:36;;;;;;;2.00;0.83;;;18.20;24.80;;;;;;5034023;28;46602;-85
2023/10/21 10:41:18;;;;;;;2.13;0.90;;;18.00;25.20;;;;;;5053087;28;46428;-83
2023/10/21 10:43:45;;;;;;;2.43;0.80;;;18.10;25.30;;;;;;5054895;28;46266;-85
2023/10/21 10:46:17;;;;;;;2.87;0.90;;;18.40;25.20;;;;;;5038749;28;46771;-84
2023/10/21 10:48:43;;;;;;;2.37;1.17;;;18.40;24.60;;;;;;5037473;28;46455;-84
2023/10/21 10:51:19;;;;;;;2.03;0.80;;;18.30;23.90;;;;;;5037473;28;46570;-86
2023/10/21 10:53:56;;;;;;;2.23;0.73;;;18.40;24.30;;;;;;5032310;28;46770;-85
2023/10/21 10:56:25;;;;;;;1.90;0.70;;;18.90;23.90;;;;;;5035433;28;46505;-89
2023/10/21 10:58:51;;;;;;;2.57;0.80;;;19.00;23.60;;;;;;5030257;28;46430;-86
2023/10/21 11:01:25;;;;;;;2.10;0.70;;;19.10;23.60;;;;;;5030337;28;47305;-87
2023/10/21 11:04:01;;;;;;;1.93;0.70;;;19.20;23.30;;;;;;5032511;28;46422;-85
2023/10/21 11:06:31;;;;;;;2.00;0.70;;;19.30;23.00;;;;;;5032954;28;46700;-86
2023/10/21 11:08:58;;;;;;;2.17;1.00;;;19.20;23.20;;;;;;5034370;28;45955;-86
2023/10/21 11:11:24;;;;;;;1.90;0.73;;;19.10;23.10;;;;;;5036338;28;46643;-85
2023/10/21 11:13:49;;;;;;;1.77;0.70;;;19.00;23.20;;;;;;5037800;28;46411;-85
2023/10/21 11:16:15;;;;;;;4.90;1.00;;;18.70;23.10;;;;;;5038997;28;49734;-89
2023/10/21 11:18:41;;;;;;;7.30;0.90;;;18.40;23.60;;;;;;5034136;28;46957;-84
2023/10/21 11:21:07;;;;;;;2.27;0.80;;;18.30;24.00;;;;;;5031044;28;46506;-85
2023/10/21 11:23:35;;;;;;;5.50;1.23;;;18.40;24.10;;;;;;5030367;28;46462;-84
2023/10/21 11:26:01;;;;;;;2.73;0.90;;;18.40;24.20;;;;;;5033111;28;46427;-85
2023/10/21 11:28:28;;;;;;;2.10;0.83;;;18.50;24.20;;;;;;5033406;28;46328;-87
2023/10/21 11:30:54;;;;;;;1.90;0.80;;;18.60;23.70;;;;;;5034539;28;46400;-85
2023/10/21 11:33:20;;;;;;;2.27;0.83;;;18.60;23.50;;;;;;5033618;28;46523;-86
2023/10/21 11:35:47;;;;;;;2.00;0.80;;;18.70;23.70;;;;;;5032733;28;46667;-83
2023/10/21 11:38:14;;;;;;;2.40;0.77;;;18.80;23.30;;;;;;5049015;28;46406;-86
2023/10/21 11:40:40;;;;;;;5.83;1.00;;;18.90;23.30;;;;;;5035122;28;46357;-87
2023/10/21 11:43:14;;;;;;;2.13;0.80;;;19.00;23.40;;;;;;5035212;28;46850;-87
2023/10/21 11:45:41;;;;;;;2.37;0.90;;;19.00;23.20;;;;;;5043499;28;48499;-81
2023/10/21 11:48:10;;;;;;;1.80;0.70;;;18.90;23.40;;;;;;5034878;28;46920;-83
2023/10/21 11:50:47;;;;;;;2.00;0.70;;;19.00;23.50;;;;;;5031100;28;46574;-84
2023/10/21 11:53:13;;;;;;;1.90;0.80;;;18.90;23.50;;;;;;5048462;28;46861;-87
2023/10/21 12:40:36;;;;;;;2.23;0.90;;;18.00;23.20;;;;;;5035248;28;46716;-84
2023/10/21 12:45:48;;;;;;;2.37;0.80;;;18.00;22.40;;;;;;5035357;28;46638;-81
2023/10/21 12:48:17;;;;;;;3.63;0.87;;;18.00;22.70;;;;;;5037667;28;48048;-81
2023/10/21 12:50:43;;;;;;;2.40;0.90;;;18.00;22.60;;;;;;5032415;28;46417;-84
2023/10/21 12:53:10;;;;;;;3.20;0.80;;;18.00;22.60;;;;;;5032737;28;46418;-84
2023/10/21 12:55:37;;;;;;;2.00;0.70;;;18.00;22.60;;;;;;5032226;28;46787;-83
2023/10/21 12:58:03;;;;;;;2.00;0.80;;;18.00;22.70;;;;;;5037515;28;49192;-85
2023/10/21 13:00:30;;;;;;;1.93;0.80;;;18.00;22.60;;;;;;5032007;28;46432;-83
2023/10/21 13:02:56;;;;;;;2.70;0.97;;;17.90;22.70;;;;;;5036501;28;46664;-86
2023/10/21 13:05:22;;;;;;;2.30;0.93;;;18.00;22.60;;;;;;5042065;28;46280;-88
2023/10/21 13:07:48;;;;;;;2.47;0.80;;;18.10;22.60;;;;;;5033031;28;48461;-84
2023/10/21 13:10:13;;;;;;;3.90;1.00;;;18.10;22.90;;;;;;5031573;28;46756;-88
2023/10/21 13:12:39;;;;;;;3.07;0.83;;;17.90;23.00;;;;;;5029542;28;46719;-85
2023/10/21 13:15:13;;;;;;;3.13;1.03;;;17.90;23.10;;;;;;5032565;28;46781;-85
2023/10/21 13:17:39;;;;;;;2.87;0.90;;;17.80;23.10;;;;;;5032237;28;46263;-86
2023/10/21 13:20:16;;;;;;;3.03;1.47;;;17.80;23.10;;;;;;5031136;28;46670;-87
2023/10/21 13:22:43;;;;;;;2.13;0.93;;;17.80;23.30;;;;;;5030970;28;46465;-85
2023/10/21 13:25:08;;;;;;;2.00;0.80;;;17.80;23.50;;;;;;5028699;28;45942;-87
2023/10/21 13:27:35;;;;;;;6.30;1.07;;;17.80;23.60;;;;;;5028421;28;47116;-84
2023/10/21 13:30:00;;;;;;;2.57;1.10;;;17.70;23.80;;;;;;5035701;28;46329;-88
2023/10/21 13:32:27;;;;;;;3.83;1.00;;;17.70;24.10;;;;;;5032572;28;46798;-86
2023/10/21 13:34:54;;;;;;;2.70;0.90;;;17.40;24.00;;;;;;5030281;28;47852;-85